• Join FlightAware (Why Join?)
  • Login
  • US Flag 
05:02AM EDT


 

Airport Tracker/Info


-or-


 

Live Flight TrackerFlight Track Log ✈ MTN8308 ✈ 14-May-2013 ✈ KEWR - KBWI

Flight Track Log - Related Links

Times and Time Zones

All times are in EDT time to prevent confusion due to time zone crossing. See the MTN8308 flight status page for this flight to view local times or setup timezone preferences in your user account.

Time Position Orientation Groundspeed Altitude Reporting Facility
EDT Latitude Longitude Course Direction KTS MPH feet Rate Location/Type
03:18AM 40.7000 -74.1667 270° West 84 97 800  Level New York TRACON
03:19AM 40.7000 -74.1833 270° West 94 108 1,400 540 Climbing New York TRACON
03:20AM 40.7000 -74.2333 270° West 114 131 1,900 600 Climbing New York TRACON
03:21AM 40.7000 -74.2667 270° West 115 132 2,600 600 Climbing New York TRACON
03:22AM 40.6833 -74.3000 237° Southwest 122 140 3,100 600 Climbing New York TRACON
03:23AM 40.6833 -74.3500 270° West 123 142 3,800 60 Climbing New York TRACON
03:25AM 40.6333 -74.4074 270° West  Level FlightAware Approximate
03:32AM 40.6865 -74.7817 276° West  Level FlightAware Approximate
03:33AM 40.6919 -74.8355 278° West  Level FlightAware Approximate
03:33AM 40.5833 -74.9167 272° West 166 191 4,000  Level Philadelphia TRACON
03:34AM 40.6973 -74.8894 278° West  Level FlightAware Approximate
03:34AM 40.5667 -74.9833 252° West 167 192 4,000  Level Philadelphia TRACON
03:35AM 40.7009 -74.9436 273° West  Level FlightAware Approximate
03:35AM 40.5333 -75.0333 229° Southwest 180 207 4,000  Level Philadelphia TRACON
03:36AM 40.7027 -74.9978 273° West  Level FlightAware Approximate
03:36AM 40.5000 -75.0667 217° Southwest 176 203 4,000  Level Philadelphia TRACON
03:37AM 40.7045 -75.0521 272° West  Level FlightAware Approximate
03:37AM 40.4667 -75.1167 229° Southwest 176 203 4,000  Level Philadelphia TRACON
03:38AM 40.7062 -75.1064 272° West  Level FlightAware Approximate
03:38AM 40.4167 -75.1500 207° Southwest 175 201 4,000  Level Philadelphia TRACON
03:39AM 40.3833 -75.1833 217° Southwest 174 200 4,000  Level Philadelphia TRACON
03:40AM 40.3500 -75.2333 229° Southwest 173 199 4,000  Level Philadelphia TRACON
03:41AM 40.3167 -75.2667 217° Southwest 174 200 4,000  Level Philadelphia TRACON
03:42AM 40.2833 -75.3000 217° Southwest 171 197 4,000  Level Philadelphia TRACON
03:43AM 40.2333 -75.3500 217° Southwest 170 196 4,000  Level Philadelphia TRACON
03:44AM 40.2000 -75.3833 217° Southwest 170 196 4,000  Level Philadelphia TRACON
03:45AM 40.1667 -75.4167 217° Southwest 173 199 4,000  Level Philadelphia TRACON
03:46AM 40.1333 -75.4667 229° Southwest 170 196 4,000  Level Philadelphia TRACON
03:47AM 40.0833 -75.5000 207° Southwest 171 197 4,000  Level Philadelphia TRACON
03:48AM 40.0500 -75.5333 217° Southwest 173 199 4,000  Level Philadelphia TRACON
03:49AM 40.0167 -75.5833 229° Southwest 169 194 4,000  Level Philadelphia TRACON
03:50AM 39.9667 -75.6167 207° Southwest 172 198 4,000  Level Philadelphia TRACON
03:51AM 39.9333 -75.6500 217° Southwest 168 193 4,000  Level Philadelphia TRACON
03:52AM 39.9000 -75.7000 229° Southwest 165 190 4,000  Level Philadelphia TRACON
03:53AM 39.8667 -75.7333 218° Southwest 165 190 4,000  Level Philadelphia TRACON
03:54AM 39.8333 -75.7833 229° Southwest 165 190 4,000  Level Philadelphia TRACON
03:55AM 39.8000 -75.8500 237° Southwest 165 190 4,000  Level Potomac TRACON
03:56AM 39.7667 -75.8833 218° Southwest 164 189 4,000  Level Potomac TRACON
03:57AM 39.7333 -75.9333 229° Southwest 162 186 4,000  Level Potomac TRACON
03:58AM 39.7000 -75.9667 218° Southwest 164 189 4,000  Level Potomac TRACON
03:59AM 39.6667 -76.0167 229° Southwest 165 190 4,000  Level Potomac TRACON
04:00AM 39.6333 -76.0500 218° Southwest 164 189 4,000  Level Potomac TRACON
04:01AM 39.6000 -76.1000 229° Southwest 163 188 4,000  Level Potomac TRACON
04:02AM 39.5667 -76.1333 218° Southwest 163 188 4,000  Level Potomac TRACON
04:03AM 39.5333 -76.1833 229° Southwest 161 185 4,000  Level Potomac TRACON
04:04AM 39.5167 -76.2167 237° Southwest 160 184 4,000  Level Potomac TRACON
04:05AM 39.4833 -76.2667 229° Southwest 162 186 4,000 -120 Level Potomac TRACON
04:06AM 39.4500 -76.3000 218° Southwest 166 191 3,800 -300 Descending Potomac TRACON
04:07AM 39.4167 -76.3500 229° Southwest 170 196 3,500 -300 Descending Potomac TRACON
04:08AM 39.3833 -76.3833 218° Southwest 170 196 3,200 -300 Descending Potomac TRACON
04:09AM 39.3500 -76.4333 229° Southwest 172 198 3,000 -120 Descending Potomac TRACON
04:10AM 39.3167 -76.4667 218° Southwest 167 192 3,000  Level Potomac TRACON
04:11AM 39.2833 -76.5167 229° Southwest 163 188 3,000 -180 Level Potomac TRACON
04:12AM 39.2500 -76.5500 218° Southwest 159 183 2,700 -600 Descending Potomac TRACON
04:13AM 39.2167 -76.5833 218° Southwest 170 196 1,900 -900 Descending Potomac TRACON
04:14AM 39.1833 -76.6333 229° Southwest 170 196 900 -1,020 Descending Potomac TRACON